createdAt,value
2023-04-19T00:00:09.552Z,10.13
2023-04-19T00:03:17.610Z,11.17
2023-04-19T00:06:24.797Z,9.03
2023-04-19T00:09:32.491Z,12.27
2023-04-19T00:12:38.904Z,12.03
2023-04-19T00:15:45.316Z,11.07
2023-04-19T00:18:51.840Z,9.10
2023-04-19T00:21:58.470Z,6.30
2023-04-19T00:25:06.911Z,6.33
2023-04-19T00:28:13.087Z,5.23
2023-04-19T00:31:19.495Z,5.90
2023-04-19T00:34:26.231Z,6.23
2023-04-19T00:37:32.522Z,4.63
2023-04-19T00:40:40.116Z,4.10
2023-04-19T00:43:46.799Z,3.60
2023-04-19T00:46:53.303Z,4.10
2023-04-19T00:49:59.447Z,4.20
2023-04-19T00:53:06.174Z,4.47
2023-04-19T00:56:15.743Z,5.60
2023-04-19T00:59:21.938Z,7.07
2023-04-19T01:02:29.241Z,8.27
2023-04-19T01:05:35.352Z,8.77
2023-04-19T01:08:41.531Z,7.87
2023-04-19T01:11:48.660Z,8.23
2023-04-19T01:14:55.067Z,6.70
2023-04-19T01:18:02.329Z,7.17
2023-04-19T01:21:09.978Z,6.97
2023-04-19T01:24:17.649Z,6.83
2023-04-19T01:27:24.242Z,5.63
2023-04-19T01:30:30.133Z,5.70
2023-04-19T01:33:36.453Z,5.80
2023-04-19T01:36:42.795Z,5.67
2023-04-19T01:39:50.488Z,5.33
2023-04-19T01:42:56.506Z,5.30
2023-04-19T01:46:02.748Z,6.30
2023-04-19T01:49:08.695Z,7.30
2023-04-19T01:52:14.732Z,6.53
2023-04-19T01:55:22.373Z,6.50
2023-04-19T01:58:28.460Z,7.43
2023-04-19T02:01:34.556Z,8.20
2023-04-19T02:04:40.693Z,7.53
2023-04-19T02:07:46.460Z,6.03
2023-04-19T02:10:54.345Z,8.00
2023-04-19T02:14:00.314Z,7.37
2023-04-19T02:17:06.433Z,7.73
2023-04-19T02:20:12.811Z,15.10
2023-04-19T02:23:19.111Z,27.53
2023-04-19T02:26:26.937Z,16.97
2023-04-19T02:29:34.479Z,7.50
2023-04-19T02:32:40.940Z,5.77
2023-04-19T02:35:46.950Z,6.67
2023-04-19T02:38:52.925Z,7.20
2023-04-19T02:42:01.281Z,5.63
2023-04-19T02:45:09.241Z,6.03
2023-04-19T02:48:15.247Z,6.87
2023-04-19T02:51:21.314Z,6.43
2023-04-19T02:54:27.255Z,6.63
2023-04-19T02:57:34.901Z,7.00
2023-04-19T03:00:40.975Z,6.40
2023-04-19T03:03:47.080Z,7.17
2023-04-19T03:06:54.062Z,6.23
2023-04-19T03:10:00.362Z,8.17
2023-04-19T03:13:07.793Z,10.20
2023-04-19T03:16:14.110Z,10.57
2023-04-19T03:19:20.152Z,8.10
2023-04-19T03:22:26.285Z,9.17
2023-04-19T03:25:33.405Z,8.07
2023-04-19T03:28:41.368Z,7.40
2023-04-19T03:31:47.385Z,8.07
2023-04-19T03:34:53.607Z,8.07
2023-04-19T03:37:59.776Z,7.47
2023-04-19T03:41:06.404Z,9.37
2023-04-19T03:44:14.283Z,6.20
2023-04-19T03:47:20.970Z,8.10
2023-04-19T03:50:27.193Z,7.70
2023-04-19T03:53:33.453Z,6.87
2023-04-19T03:56:39.476Z,7.13
2023-04-19T03:59:46.580Z,7.70
2023-04-19T04:02:52.621Z,6.53
2023-04-19T04:05:58.861Z,6.53
2023-04-19T04:09:05.727Z,7.67
2023-04-19T04:12:13.106Z,8.00
2023-04-19T04:15:20.603Z,25.10
2023-04-19T04:18:27.211Z,34.00
2023-04-19T04:21:33.509Z,15.10
2023-04-19T04:24:41.573Z,11.37
2023-04-19T04:27:48.558Z,13.03
2023-04-19T04:30:57.538Z,25.43
2023-04-19T04:34:03.850Z,27.53
2023-04-19T04:37:10.524Z,25.90
2023-04-19T04:40:17.005Z,18.37
2023-04-19T04:43:24.136Z,20.70
2023-04-19T04:46:31.576Z,33.40
2023-04-19T04:49:37.716Z,15.07
2023-04-19T04:52:43.821Z,8.87
2023-04-19T04:55:50.106Z,10.80
2023-04-19T04:58:57.268Z,9.33
2023-04-19T05:02:04.914Z,8.60
2023-04-19T05:05:12.466Z,8.27
2023-04-19T05:08:18.839Z,9.50
2023-04-19T05:11:24.835Z,9.67
2023-04-19T05:14:30.816Z,15.80
2023-04-19T05:17:38.183Z,24.83
2023-04-19T05:20:46.876Z,21.03
2023-04-19T05:23:53.800Z,18.97
2023-04-19T05:26:59.890Z,11.63
2023-04-19T05:30:07.537Z,8.27
2023-04-19T05:33:14.760Z,9.20
2023-04-19T05:36:21.115Z,6.77
2023-04-19T05:39:27.676Z,9.27
2023-04-19T05:42:34.144Z,7.80
2023-04-19T05:45:40.681Z,8.57
2023-04-19T05:48:48.331Z,10.63
2023-04-19T05:51:55.647Z,9.50
2023-04-19T05:55:02.962Z,16.13
2023-04-19T05:58:09.387Z,13.50
2023-04-19T06:01:15.616Z,11.67
2023-04-19T06:04:24.073Z,10.47
2023-04-19T06:07:40.053Z,10.57
2023-04-19T06:10:54.978Z,9.00
2023-04-19T06:14:04.469Z,9.20
2023-04-19T06:17:11.022Z,10.43
2023-04-19T06:20:18.756Z,12.53
2023-04-19T06:23:25.609Z,12.87
2023-04-19T06:26:32.057Z,12.10
2023-04-19T06:29:38.432Z,13.97
2023-04-19T06:32:45.013Z,15.00
2023-04-19T06:35:52.731Z,10.30
2023-04-19T06:38:58.822Z,10.67
2023-04-19T06:42:05.630Z,9.50
2023-04-19T06:45:13.224Z,9.20
2023-04-19T06:48:19.521Z,10.87
2023-04-19T06:51:27.100Z,9.93
2023-04-19T06:54:33.464Z,10.23
2023-04-19T06:57:39.454Z,9.57
2023-04-19T07:00:45.506Z,9.70
2023-04-19T07:03:51.850Z,7.70
2023-04-19T07:07:00.384Z,8.73
2023-04-19T07:10:07.241Z,8.47
2023-04-19T07:13:13.377Z,7.03
2023-04-19T07:16:19.547Z,7.47
2023-04-19T07:19:26.340Z,10.17
2023-04-19T07:22:34.220Z,6.70
2023-04-19T07:25:40.577Z,7.83
2023-04-19T07:28:47.142Z,6.10
2023-04-19T07:31:55.495Z,12.23
2023-04-19T07:35:01.951Z,7.20
2023-04-19T07:38:09.377Z,6.53
2023-04-19T07:41:15.805Z,6.20
2023-04-19T07:44:21.966Z,13.20
2023-04-19T07:47:28.509Z,11.00
2023-04-19T07:50:34.650Z,8.00
2023-04-19T07:53:43.411Z,6.13
2023-04-19T07:56:49.632Z,7.13
2023-04-19T07:59:58.442Z,6.30
2023-04-19T08:03:05.551Z,10.30
2023-04-19T08:06:14.360Z,7.30
2023-04-19T08:09:22.285Z,7.20
2023-04-19T08:12:35.651Z,7.30
2023-04-19T08:18:54.227Z,6.70
2023-04-19T08:22:00.353Z,7.27
2023-04-19T08:25:09.543Z,10.07
2023-04-19T08:28:15.736Z,8.53
2023-04-19T08:31:22.262Z,9.43
2023-04-19T08:34:28.464Z,8.90
2023-04-19T08:37:34.605Z,7.73
2023-04-19T08:40:47.769Z,9.43
2023-04-19T08:43:56.323Z,8.03
2023-04-19T08:47:02.406Z,8.33
2023-04-19T08:50:24.025Z,7.00
2023-04-19T08:53:36.429Z,6.60
2023-04-19T08:56:44.306Z,5.50
2023-04-19T08:59:55.749Z,4.33
2023-04-19T09:03:02.092Z,5.60
2023-04-19T09:06:09.498Z,5.87
2023-04-19T09:12:28.400Z,5.20
2023-04-19T09:15:39.760Z,5.00
2023-04-19T09:19:02.368Z,5.60
2023-04-19T09:22:18.055Z,6.13
2023-04-19T09:28:37.689Z,6.50
2023-04-19T09:31:58.475Z,4.50
2023-04-19T09:35:04.878Z,4.93
2023-04-19T09:38:12.082Z,5.07
2023-04-19T09:41:18.966Z,5.30
2023-04-19T09:47:35.937Z,4.07
2023-04-19T09:51:02.310Z,4.10
2023-04-19T09:54:12.026Z,4.67
2023-04-19T09:57:18.245Z,4.77
2023-04-19T10:00:28.267Z,4.67
2023-04-19T10:03:36.260Z,4.67
2023-04-19T10:06:58.815Z,4.80
2023-04-19T10:10:19.654Z,5.77
2023-04-19T10:13:27.601Z,4.30
2023-04-19T10:16:35.974Z,3.23
2023-04-19T10:19:43.131Z,4.47
2023-04-19T10:22:49.376Z,4.23
2023-04-19T10:25:57.961Z,3.90
2023-04-19T10:29:03.982Z,3.87
2023-04-19T10:32:14.894Z,6.00
2023-04-19T10:35:23.297Z,5.57
2023-04-19T10:38:40.545Z,4.23
2023-04-19T10:41:59.505Z,4.73
2023-04-19T10:45:33.755Z,4.37
2023-04-19T10:48:44.244Z,5.00
2023-04-19T10:51:52.978Z,5.80
2023-04-19T10:54:58.853Z,5.80
2023-04-19T10:58:06.639Z,5.43
2023-04-19T11:01:33.986Z,6.43
2023-04-19T11:05:14.036Z,6.17
2023-04-19T11:08:24.637Z,6.47
2023-04-19T11:11:30.516Z,4.60
2023-04-19T11:14:38.150Z,4.37
2023-04-19T11:17:44.401Z,5.20
2023-04-19T11:20:55.871Z,4.40
2023-04-19T11:24:11.433Z,5.27
2023-04-19T11:27:17.445Z,4.33
2023-04-19T11:30:24.413Z,5.77
2023-04-19T11:33:34.711Z,3.57
2023-04-19T11:36:51.341Z,3.87
2023-04-19T11:39:57.271Z,3.43
2023-04-19T11:43:05.628Z,3.60
2023-04-19T11:46:13.515Z,3.70
2023-04-19T11:49:27.436Z,3.60
2023-04-19T11:52:36.979Z,3.37
2023-04-19T11:55:52.394Z,2.47
2023-04-19T11:58:59.659Z,3.00
2023-04-19T12:02:10.573Z,2.77
2023-04-19T12:05:17.783Z,3.10
2023-04-19T12:08:36.608Z,2.73
2023-04-19T12:11:46.948Z,2.67
2023-04-19T12:14:53.884Z,3.27
2023-04-19T12:18:02.127Z,2.43
2023-04-19T12:21:08.458Z,2.93
2023-04-19T12:24:17.979Z,2.47
2023-04-19T12:27:25.760Z,3.03
2023-04-19T12:30:32.363Z,3.30
2023-04-19T12:33:38.728Z,3.03
2023-04-19T12:36:45.119Z,2.97
2023-04-19T12:39:53.741Z,3.83
2023-04-19T12:43:01.974Z,2.77
2023-04-19T12:46:08.216Z,6.17
2023-04-19T12:49:14.479Z,17.17
2023-04-19T12:52:21.467Z,4.70
2023-04-19T12:55:29.214Z,4.73
2023-04-19T12:58:35.776Z,4.67
2023-04-19T13:01:42.248Z,5.83
2023-04-19T13:04:48.753Z,5.70
2023-04-19T13:07:54.828Z,4.20
2023-04-19T13:11:02.994Z,3.50
2023-04-19T13:14:09.094Z,3.33
2023-04-19T13:17:15.190Z,4.50
2023-04-19T13:20:21.302Z,3.67
2023-04-19T13:23:27.401Z,4.30
2023-04-19T13:26:35.698Z,3.40
2023-04-19T13:29:42.003Z,4.13
2023-04-19T13:32:48.034Z,2.47
2023-04-19T13:35:54.243Z,2.53
2023-04-19T13:39:00.894Z,2.77
2023-04-19T13:42:08.632Z,3.33
2023-04-19T13:45:15.803Z,2.80
2023-04-19T13:48:22.099Z,3.43
2023-04-19T13:51:38.801Z,4.33
2023-04-19T13:54:53.566Z,5.20
2023-04-19T13:58:01.139Z,3.97
2023-04-19T14:01:07.518Z,2.50
2023-04-19T14:04:13.916Z,6.80
2023-04-19T14:07:20.247Z,3.73
2023-04-19T14:10:26.130Z,2.70
2023-04-19T14:13:33.728Z,5.50
2023-04-19T14:16:39.663Z,6.23
2023-04-19T14:19:45.721Z,2.90
2023-04-19T14:22:52.095Z,3.40
2023-04-19T14:25:58.217Z,2.20
2023-04-19T14:29:06.648Z,2.70
2023-04-19T14:32:25.100Z,3.13
2023-04-19T14:35:32.184Z,5.30
2023-04-19T14:38:38.445Z,4.00
2023-04-19T14:41:44.449Z,3.10
2023-04-19T14:44:53.298Z,3.07
2023-04-19T14:47:59.452Z,3.33
2023-04-19T14:51:05.821Z,3.00
2023-04-19T14:54:11.800Z,3.10
2023-04-19T14:57:18.018Z,2.97
2023-04-19T15:00:25.760Z,2.33
2023-04-19T15:03:32.412Z,3.40
2023-04-19T15:06:38.845Z,3.07
2023-04-19T15:09:44.944Z,4.97
2023-04-19T15:12:50.896Z,3.73
2023-04-19T15:16:00.021Z,3.60
2023-04-19T15:19:07.705Z,3.53
2023-04-19T15:22:14.207Z,3.50
2023-04-19T15:25:20.268Z,3.03
2023-04-19T15:28:26.945Z,2.83
2023-04-19T15:31:35.044Z,4.13
2023-04-19T15:34:41.075Z,3.80
2023-04-19T15:37:48.601Z,4.93
2023-04-19T15:40:56.087Z,4.80
2023-04-19T15:44:02.671Z,11.67
2023-04-19T15:47:10.465Z,18.97
2023-04-19T15:50:16.673Z,7.80
2023-04-19T15:53:23.188Z,11.33
2023-04-19T15:56:29.246Z,14.77
2023-04-19T15:59:35.212Z,25.60
2023-04-19T16:02:42.803Z,13.77
2023-04-19T16:05:51.697Z,51.03
2023-04-19T16:08:57.955Z,25.57
2023-04-19T16:12:04.027Z,86.43
2023-04-19T16:15:10.781Z,32.77
2023-04-19T16:18:18.275Z,33.27
2023-04-19T16:21:24.369Z,41.50
2023-04-19T16:24:30.441Z,42.20
2023-04-19T16:27:36.739Z,29.37
2023-04-19T16:30:42.913Z,24.80
2023-04-19T16:33:50.456Z,9.77
2023-04-19T16:36:56.997Z,9.47
2023-04-19T16:40:07.177Z,17.23
2023-04-19T16:43:13.009Z,18.00
2023-04-19T16:46:19.253Z,15.80
2023-04-19T16:49:26.645Z,14.77
2023-04-19T16:52:35.356Z,15.20
2023-04-19T16:55:41.388Z,16.67
2023-04-19T16:58:47.539Z,16.10
2023-04-19T17:01:59.614Z,11.87
2023-04-19T17:05:10.033Z,11.17
2023-04-19T17:08:16.249Z,11.33
2023-04-19T17:11:22.241Z,9.30
2023-04-19T17:14:29.145Z,11.47
2023-04-19T17:17:35.228Z,11.97
2023-04-19T17:20:42.687Z,9.10
2023-04-19T17:23:49.090Z,9.17
2023-04-19T17:26:55.220Z,8.07
2023-04-19T17:30:01.426Z,6.80
2023-04-19T17:33:07.871Z,8.07
2023-04-19T17:36:15.932Z,15.43
2023-04-19T17:39:21.870Z,11.67
2023-04-19T17:42:28.031Z,12.50
2023-04-19T17:45:34.461Z,11.80
2023-04-19T17:48:40.894Z,11.33
2023-04-19T17:51:48.636Z,9.07
2023-04-19T17:54:54.969Z,11.27
2023-04-19T17:58:01.324Z,9.17
2023-04-19T18:01:08.970Z,11.47
2023-04-19T18:04:18.045Z,11.47
2023-04-19T18:07:26.028Z,10.47
2023-04-19T18:10:32.186Z,9.30
2023-04-19T18:13:38.141Z,8.20
2023-04-19T18:16:43.971Z,7.77
2023-04-19T18:19:50.085Z,18.97
2023-04-19T18:23:00.158Z,15.93
2023-04-19T18:26:06.483Z,19.10
2023-04-19T18:29:13.154Z,22.57
2023-04-19T18:32:19.236Z,27.40
2023-04-19T18:35:25.202Z,27.00
2023-04-19T18:38:33.123Z,25.77
2023-04-19T18:41:39.424Z,22.63
2023-04-19T18:44:53.522Z,22.13
2023-04-19T18:48:01.954Z,25.43
2023-04-19T18:51:10.275Z,29.10
2023-04-19T18:54:17.539Z,30.37
2023-04-19T18:57:27.069Z,30.83
2023-04-19T19:00:33.856Z,26.27
2023-04-19T19:04:07.832Z,27.27
2023-04-19T19:07:18.128Z,20.93
2023-04-19T19:10:58.858Z,24.40
2023-04-19T19:13:59.896Z,21.47
2023-04-19T19:17:07.180Z,25.27
2023-04-19T19:20:13.776Z,23.73
2023-04-19T19:23:20.558Z,21.07
2023-04-19T19:26:39.295Z,20.57
2023-04-19T19:29:46.997Z,18.50
2023-04-19T19:32:53.134Z,20.30
2023-04-19T19:35:59.557Z,20.40
2023-04-19T19:39:05.836Z,18.60
2023-04-19T19:42:14.282Z,16.43
2023-04-19T19:45:20.600Z,13.27
2023-04-19T19:48:29.925Z,11.70
2023-04-19T19:51:56.841Z,11.67
2023-04-19T19:55:02.816Z,13.13
2023-04-19T19:58:39.273Z,15.70
2023-04-19T20:01:37.511Z,16.27
2023-04-19T20:04:44.021Z,15.73
2023-04-19T20:10:59.876Z,32.17
2023-04-19T20:14:07.667Z,22.73
2023-04-19T20:17:13.902Z,19.27
2023-04-19T20:20:21.032Z,40.93
2023-04-19T20:23:27.290Z,30.20
2023-04-19T20:26:33.907Z,27.47
2023-04-19T20:29:41.275Z,22.37
2023-04-19T20:32:48.595Z,19.17
2023-04-19T20:35:55.546Z,15.33
2023-04-19T20:39:06.569Z,13.87
2023-04-19T20:42:12.965Z,12.63
2023-04-19T20:45:21.020Z,15.37
2023-04-19T20:48:27.326Z,17.33
2023-04-19T20:51:33.481Z,18.40
2023-04-19T20:54:39.401Z,17.23
2023-04-19T20:57:45.774Z,18.23
2023-04-19T21:00:53.294Z,13.43
2023-04-19T21:03:59.629Z,13.60
2023-04-19T21:07:06.029Z,12.43
2023-04-19T21:10:13.842Z,12.03
2023-04-19T21:13:20.090Z,14.07
2023-04-19T21:16:27.729Z,14.07
2023-04-19T21:19:34.073Z,12.17
2023-04-19T21:22:40.847Z,9.77
2023-04-19T21:25:46.743Z,9.80
2023-04-19T21:28:53.148Z,11.47
2023-04-19T21:32:00.960Z,13.10
2023-04-19T21:35:08.460Z,11.63
2023-04-19T21:38:14.858Z,12.03
2023-04-19T21:41:21.023Z,10.60
2023-04-19T21:44:27.341Z,12.67
2023-04-19T21:47:34.991Z,11.33
2023-04-19T21:50:41.675Z,8.13
2023-04-19T21:53:47.897Z,8.30
2023-04-19T21:56:53.831Z,8.53
2023-04-19T21:59:59.795Z,8.90
2023-04-19T22:03:07.730Z,8.20
2023-04-19T22:06:17.196Z,7.27
2023-04-19T22:09:23.065Z,8.03
2023-04-19T22:12:29.436Z,8.30
2023-04-19T22:15:35.558Z,8.80
2023-04-19T22:18:43.320Z,9.60
2023-04-19T22:21:49.307Z,8.80
2023-04-19T22:24:58.033Z,7.70
2023-04-19T22:28:07.234Z,7.43
2023-04-19T22:31:13.888Z,8.47
2023-04-19T22:34:21.175Z,10.33
2023-04-19T22:37:27.280Z,9.33
2023-04-19T22:40:33.540Z,10.90
2023-04-19T22:43:39.683Z,10.77
2023-04-19T22:46:45.540Z,11.63
2023-04-19T22:49:53.219Z,11.30
2023-04-19T22:52:59.423Z,11.20
2023-04-19T22:56:06.053Z,11.03
2023-04-19T22:59:13.491Z,10.70
2023-04-19T23:02:19.816Z,9.70
2023-04-19T23:05:28.003Z,14.13
2023-04-19T23:08:34.816Z,12.90
2023-04-19T23:11:40.956Z,9.47
2023-04-19T23:14:48.570Z,8.57
2023-04-19T23:17:54.941Z,7.83
2023-04-19T23:21:02.325Z,7.47
2023-04-19T23:24:08.421Z,9.73
2023-04-19T23:27:14.884Z,10.47
2023-04-19T23:30:21.430Z,10.97
2023-04-19T23:33:27.361Z,9.23
2023-04-19T23:36:34.735Z,9.33
2023-04-19T23:39:41.238Z,8.60
2023-04-19T23:42:47.246Z,12.47
2023-04-19T23:45:53.537Z,11.57
2023-04-19T23:48:59.500Z,11.43
2023-04-19T23:52:07.025Z,12.50
2023-04-19T23:55:13.784Z,12.13
2023-04-19T23:58:19.964Z,11.93
